Airfield :
LOGIN :

Register | Disclaimer

   EN    FR    IT 

 










Legend :    VFR   Marginal VFR   IFR   Intensive IFR   Very Intensive IFR
Visi :
Ceiling :
>= 8 km
>= 3000ft
5 to 8 km
1000 to 3000 ft
1500m to 5 km
500 to 1000 ft
800 to 1500m
200 to 500 ft
< 800m
< 200 ft
Symbols :   Thunderstorms  Fog  Heavy snow  Heavy precipitations  Wind > 20 kt
SIGMETs :     Misc.  Thunderstorms  Icing  Turbulence  Mountain Waves  Volcanic Ashes






- Airport Elevation : 699 ft
- IATA code : PAD


EDLP - Paderborn Lippstadt

CURRENT METAR :
  • 122050Z 27004KT 220V310 9999 FEW046 13/08 Q1023

EXPIRED METARs :
  • 122020Z 30005KT 250V330 CAVOK 14/07 Q1023
  • 121950Z 30007KT 260V340 9999 FEW048 15/07 Q1022
  • 121920Z 30007KT 250V350 CAVOK 17/08 Q1022
  • 121850Z 30009KT 260V330 CAVOK 17/08 Q1021
  • 121820Z 31012KT 240V350 CAVOK 18/08 Q1021

TAF TAF EDLP
Valid from the 12 at 18:00 until the 13 at 18:00 UTC


121700Z 1218/1318 30010KT CAVOK
BECMG 1219/1222 28004KT
BECMG 1315/1318 34005KT



MET'MAP, your aeronautical weather chart ! - Copyright ORBIFLY December 2007 - Disclaimer

ORBIFLY MET'MAP TEAM :

Programming & Development : Alexandra Zaïnal
Concept & original design : Baudouin d'Aumeries
Assistance for programming : Marc-Olivier Méhu
Technical & hardware support : Manuel Goepfert

Contact : metmap@orbifly.com




SOURCES & CREDITS :

   NOAA